createdAt,value
2018-11-20T05:00:35.247Z,38.37
2018-11-20T05:03:42.508Z,35.23
2018-11-20T05:06:45.752Z,37.90
2018-11-20T05:09:48.372Z,34.10
2018-11-20T05:12:35.370Z,39.23
2018-11-20T05:15:38.539Z,50.13
2018-11-20T05:18:35.638Z,42.73
2018-11-20T05:21:26.033Z,37.90
2018-11-20T05:24:14.619Z,38.43
2018-11-20T05:27:02.789Z,38.93
2018-11-20T05:29:45.955Z,44.33
2018-11-20T05:32:37.319Z,39.37
2018-11-20T05:35:24.463Z,37.87
2018-11-20T05:38:06.483Z,38.90
2018-11-20T05:40:54.287Z,42.43
2018-11-20T05:43:42.877Z,39.03
2018-11-20T05:46:34.520Z,39.67
2018-11-20T05:49:37.643Z,41.57
2018-11-20T05:52:31.921Z,38.20
2018-11-20T05:55:31.940Z,39.70
2018-11-20T05:58:10.816Z,36.87
2018-11-20T06:01:02.016Z,34.90
2018-11-20T06:03:48.918Z,37.87
2018-11-20T06:06:35.845Z,36.20
2018-11-20T06:09:21.546Z,36.80
2018-11-20T06:12:19.698Z,37.33
2018-11-20T06:15:07.122Z,38.47
2018-11-20T06:17:54.228Z,32.83
2018-11-20T06:20:32.246Z,35.47
2018-11-20T06:23:26.700Z,38.13
2018-11-20T06:26:13.485Z,35.07
2018-11-20T06:28:55.556Z,33.43
2018-11-20T06:31:51.796Z,33.30
2018-11-20T06:34:36.857Z,33.83
2018-11-20T06:37:34.400Z,42.93
2018-11-20T06:40:21.472Z,32.47
2018-11-20T06:43:13.791Z,39.33
2018-11-20T06:46:16.783Z,31.23
2018-11-20T06:49:07.980Z,32.77
2018-11-20T06:51:51.352Z,31.67
2018-11-20T06:54:38.130Z,32.90
2018-11-20T06:57:22.845Z,34.67
2018-11-20T07:00:13.679Z,36.07
2018-11-20T07:02:55.729Z,31.80
2018-11-20T07:05:47.138Z,34.50
2018-11-20T07:08:35.608Z,30.47
2018-11-20T07:11:15.559Z,29.83
2018-11-20T07:14:17.204Z,29.60
2018-11-20T07:17:14.963Z,30.80
2018-11-20T07:20:08.840Z,30.40
2018-11-20T07:22:57.430Z,37.23
2018-11-20T07:25:44.211Z,36.17
2018-11-20T07:28:38.614Z,31.33
2018-11-20T07:31:25.700Z,31.07
2018-11-20T07:34:12.488Z,33.77
2018-11-20T07:36:52.944Z,32.57
2018-11-20T07:39:36.568Z,33.67
2018-11-20T07:42:30.341Z,32.60
2018-11-20T07:45:17.245Z,34.33
2018-11-20T07:48:11.502Z,32.97
2018-11-20T07:50:58.804Z,34.80
2018-11-20T07:53:45.446Z,35.77
2018-11-20T07:56:25.144Z,34.43
2018-11-20T07:59:11.283Z,34.63
2018-11-20T08:01:58.132Z,36.87
2018-11-20T08:04:55.485Z,39.43
2018-11-20T08:07:42.345Z,34.57
2018-11-20T08:10:36.403Z,35.27
2018-11-20T08:13:24.625Z,35.50
2018-11-20T08:16:07.761Z,34.27
2018-11-20T08:18:59.377Z,35.53
2018-11-20T08:21:46.104Z,36.13
2018-11-20T08:24:42.749Z,35.40
2018-11-20T08:27:19.975Z,40.60
2018-11-20T08:30:07.184Z,36.70
2018-11-20T08:33:07.321Z,35.43
2018-11-20T08:35:50.652Z,35.47
2018-11-20T08:38:32.937Z,37.90
2018-11-20T08:41:21.227Z,36.00
2018-11-20T08:44:21.541Z,38.10
2018-11-20T08:47:09.721Z,35.50
2018-11-20T08:50:03.634Z,36.73
2018-11-20T08:53:03.942Z,37.47
2018-11-20T08:55:54.746Z,33.37
2018-11-20T08:58:34.524Z,39.13
2018-11-20T09:01:25.261Z,37.63
2018-11-20T09:04:20.886Z,38.13
2018-11-20T09:07:08.562Z,37.60
2018-11-20T09:09:59.397Z,39.13
2018-11-20T09:12:46.240Z,38.17
2018-11-20T09:15:33.947Z,37.33
2018-11-20T09:18:36.861Z,33.80
2018-11-20T09:21:24.352Z,37.20
2018-11-20T09:24:15.146Z,37.47
2018-11-20T09:27:02.330Z,38.30
2018-11-20T09:29:40.960Z,38.23
2018-11-20T09:32:36.054Z,36.30
2018-11-20T09:35:39.930Z,37.57
2018-11-20T09:38:20.052Z,32.20
2018-11-20T09:41:21.430Z,37.63
2018-11-20T09:44:08.445Z,40.13
2018-11-20T09:46:55.899Z,38.03
2018-11-20T09:49:36.000Z,36.13
2018-11-20T09:52:23.323Z,34.77
2018-11-20T09:55:10.581Z,37.87
2018-11-20T09:57:58.853Z,38.53
2018-11-20T10:00:46.046Z,35.03
2018-11-20T10:03:39.553Z,39.10
2018-11-20T10:06:20.765Z,39.07
2018-11-20T10:09:12.210Z,36.60
2018-11-20T10:11:59.266Z,38.37
2018-11-20T10:17:10.188Z,41.03
2018-11-20T10:19:58.337Z,43.20
2018-11-20T10:22:55.122Z,42.33
2018-11-20T10:25:51.001Z,38.13
2018-11-20T10:28:54.831Z,38.63
2018-11-20T10:31:55.595Z,41.90
2018-11-20T10:34:42.504Z,39.07
2018-11-20T10:37:33.374Z,36.57
2018-11-20T10:40:24.831Z,42.70
2018-11-20T10:43:19.007Z,40.70
2018-11-20T10:46:09.366Z,42.03
2018-11-20T10:49:12.455Z,44.13
2018-11-20T10:51:59.270Z,41.23
2018-11-20T10:54:53.566Z,43.00
2018-11-20T10:57:40.346Z,43.33
2018-11-20T11:00:27.301Z,37.40
2018-11-20T11:03:14.301Z,43.17
2018-11-20T11:06:01.510Z,37.60
2018-11-20T11:09:05.659Z,38.67
2018-11-20T11:12:01.550Z,40.43
2018-11-20T11:14:53.546Z,38.33
2018-11-20T11:17:54.126Z,40.97
2018-11-20T11:20:42.527Z,36.77
2018-11-20T11:23:29.830Z,41.90
2018-11-20T11:26:36.134Z,37.53
2018-11-20T11:29:31.329Z,37.67
2018-11-20T11:32:18.358Z,42.03
2018-11-20T11:35:06.557Z,39.57
2018-11-20T11:38:04.203Z,41.27
2018-11-20T11:40:45.097Z,37.27
2018-11-20T11:43:30.178Z,40.63
2018-11-20T11:46:12.454Z,38.33
2018-11-20T11:49:09.984Z,36.70
2018-11-20T11:51:52.785Z,38.33
2018-11-20T11:54:53.151Z,34.07
2018-11-20T11:57:59.548Z,38.43
2018-11-20T12:00:43.152Z,35.63
2018-11-20T12:03:40.442Z,37.10
2018-11-20T12:06:33.173Z,33.90
2018-11-20T12:09:20.214Z,31.03
2018-11-20T12:12:07.431Z,35.80
2018-11-20T12:14:54.203Z,34.30
2018-11-20T12:17:37.704Z,33.30
2018-11-20T12:20:25.065Z,32.40
2018-11-20T12:23:06.384Z,33.20
2018-11-20T12:26:12.883Z,36.50
2018-11-20T12:28:55.857Z,35.17
2018-11-20T12:31:41.425Z,32.57
2018-11-20T12:34:28.548Z,32.30
2018-11-20T12:37:22.514Z,32.90
2018-11-20T12:40:08.944Z,38.03
2018-11-20T12:43:01.977Z,34.37
2018-11-20T12:46:13.121Z,36.07
2018-11-20T12:49:08.119Z,35.40
2018-11-20T12:52:05.937Z,35.97
2018-11-20T12:55:09.024Z,31.90
2018-11-20T12:58:00.062Z,37.27
2018-11-20T13:01:03.129Z,35.67
2018-11-20T13:03:45.675Z,37.70
2018-11-20T13:06:31.985Z,35.73
2018-11-20T13:09:26.604Z,36.77
2018-11-20T13:12:13.709Z,34.33
2018-11-20T13:15:08.818Z,39.07
2018-11-20T13:18:12.979Z,36.97
2018-11-20T13:21:10.959Z,37.73
2018-11-20T13:23:49.628Z,34.87
2018-11-20T13:26:31.477Z,34.23
2018-11-20T13:29:17.495Z,38.67
2018-11-20T13:32:08.380Z,38.73
2018-11-20T13:35:08.571Z,38.70
2018-11-20T13:37:51.922Z,34.70
2018-11-20T13:41:09.790Z,35.30
2018-11-20T13:43:56.585Z,37.43
2018-11-20T13:47:04.088Z,35.90
2018-11-20T13:49:49.714Z,37.73
2018-11-20T13:52:37.910Z,38.00
2018-11-20T13:55:38.361Z,38.87
2018-11-20T13:58:25.275Z,38.30
2018-11-20T14:01:19.817Z,40.40
2018-11-20T14:04:25.933Z,40.83
2018-11-20T14:07:23.143Z,39.60
2018-11-20T14:10:08.583Z,42.27
2018-11-20T14:13:14.828Z,38.87
2018-11-20T14:15:59.911Z,39.87
2018-11-20T14:18:46.967Z,38.10
2018-11-20T14:21:41.771Z,36.97
2018-11-20T14:24:30.013Z,43.90
2018-11-20T14:27:18.309Z,38.57
2018-11-20T14:30:05.148Z,42.67
2018-11-20T14:32:43.101Z,37.67
2018-11-20T14:35:46.782Z,41.67
2018-11-20T14:38:41.051Z,37.83
2018-11-20T14:41:28.392Z,41.50
2018-11-20T14:44:15.741Z,42.17
2018-11-20T14:47:02.527Z,43.47
2018-11-20T14:49:49.722Z,44.57
2018-11-20T14:52:46.805Z,39.30
2018-11-20T14:55:33.825Z,44.60
2018-11-20T14:58:15.348Z,45.87
2018-11-20T15:01:04.702Z,45.67
2018-11-20T15:03:52.569Z,42.77
2018-11-20T15:06:40.042Z,56.07
2018-11-20T15:09:28.061Z,50.53
2018-11-20T15:12:35.183Z,44.13
2018-11-20T15:15:27.060Z,43.50
2018-11-20T15:18:24.977Z,41.77
2018-11-20T15:21:11.000Z,42.90
2018-11-20T15:23:47.474Z,42.43
2018-11-20T15:26:31.325Z,48.53
2018-11-20T15:29:25.288Z,68.87
2018-11-20T15:32:12.576Z,45.27
2018-11-20T15:35:06.836Z,43.67
2018-11-20T15:37:59.005Z,44.80
2018-11-20T15:40:47.223Z,43.23
2018-11-20T15:43:24.006Z,45.97
2018-11-20T15:46:23.665Z,42.97
2018-11-20T15:49:09.032Z,46.47
2018-11-20T15:51:55.975Z,44.47
2018-11-20T15:54:34.259Z,57.90
2018-11-20T15:57:25.373Z,45.03
2018-11-20T16:00:32.090Z,45.50
2018-11-20T16:03:35.616Z,53.07
2018-11-20T16:06:15.565Z,62.00
2018-11-20T16:09:18.965Z,43.47
2018-11-20T16:12:16.702Z,48.00
2018-11-20T16:15:14.548Z,52.57
2018-11-20T16:18:01.567Z,63.30
2018-11-20T16:20:45.289Z,42.90
2018-11-20T16:23:33.923Z,46.10
2018-11-20T16:26:12.603Z,44.40
2018-11-20T16:28:54.219Z,47.30
2018-11-20T16:31:34.250Z,43.77
2018-11-20T16:34:14.665Z,47.07
2018-11-20T16:36:55.579Z,47.10
2018-11-20T16:39:53.365Z,44.57
2018-11-20T16:42:41.486Z,44.40
2018-11-20T16:45:41.367Z,43.63
2018-11-20T16:48:36.355Z,39.87
2018-11-20T16:51:23.271Z,44.50
2018-11-20T16:54:16.812Z,47.87
2018-11-20T16:56:55.061Z,45.13
2018-11-20T16:59:42.097Z,50.07
2018-11-20T17:02:29.242Z,46.33
2018-11-20T17:05:26.658Z,46.90
2018-11-20T17:08:33.143Z,43.47
2018-11-20T17:11:19.923Z,43.10
2018-11-20T17:17:51.956Z,44.77
2018-11-20T17:20:59.177Z,46.20
2018-11-20T17:24:06.409Z,45.53
2018-11-20T17:27:13.631Z,44.13
2018-11-20T17:30:20.929Z,46.43
2018-11-20T17:33:28.198Z,45.47
2018-11-20T17:36:35.474Z,44.03
2018-11-20T17:39:45.340Z,47.33
2018-11-20T17:42:52.577Z,46.93
2018-11-20T17:45:59.892Z,47.73
2018-11-20T17:49:07.177Z,48.30
2018-11-20T17:52:07.090Z,46.70
2018-11-20T17:55:14.388Z,45.03
2018-11-20T17:58:21.607Z,46.77
2018-11-20T18:01:28.947Z,43.63
2018-11-20T18:04:36.283Z,46.07
2018-11-20T18:07:43.635Z,45.03
2018-11-20T18:10:50.839Z,46.33
2018-11-20T18:13:58.127Z,45.93
2018-11-20T18:17:05.414Z,48.33
2018-11-20T18:20:12.644Z,48.07
2018-11-20T18:23:19.864Z,49.60
2018-11-20T18:26:27.164Z,50.10
2018-11-20T18:29:34.375Z,50.77
2018-11-20T18:32:41.615Z,48.23
2018-11-20T18:39:12.796Z,45.33
2018-11-20T18:42:12.678Z,48.67
2018-11-20T18:45:19.973Z,52.63
2018-11-20T18:48:27.189Z,48.57
2018-11-20T18:51:34.671Z,52.70
2018-11-20T18:54:41.949Z,51.53
2018-11-20T18:57:49.242Z,48.07
2018-11-20T19:00:56.535Z,51.60
2018-11-20T19:04:03.834Z,51.47
2018-11-20T19:07:11.091Z,47.77
2018-11-20T19:10:18.571Z,47.23
2018-11-20T19:13:25.835Z,45.40
2018-11-20T19:16:33.095Z,48.63
2018-11-20T19:19:40.385Z,53.13
2018-11-20T19:22:47.723Z,47.53
2018-11-20T19:25:55.011Z,49.43
2018-11-20T19:29:02.748Z,50.03
2018-11-20T19:32:03.326Z,52.67
2018-11-20T19:35:10.576Z,47.40
2018-11-20T19:38:17.801Z,54.90
2018-11-20T19:41:25.049Z,57.33
2018-11-20T19:44:28.374Z,55.23
2018-11-20T19:47:35.916Z,52.13
2018-11-20T19:50:43.364Z,52.87
2018-11-20T19:53:50.990Z,50.77
2018-11-20T19:56:58.211Z,49.37
2018-11-20T20:00:05.451Z,50.57
2018-11-20T20:03:12.668Z,49.53
2018-11-20T20:06:19.909Z,48.07
2018-11-20T20:09:37.455Z,47.23
2018-11-20T20:12:45.046Z,50.80
2018-11-20T20:15:52.325Z,46.80
2018-11-20T20:18:59.627Z,46.37
2018-11-20T20:22:06.909Z,47.13
2018-11-20T20:25:14.149Z,48.13
2018-11-20T20:28:17.642Z,46.97
2018-11-20T20:31:25.851Z,50.80
2018-11-20T20:34:33.125Z,48.97
2018-11-20T20:37:32.598Z,45.47
2018-11-20T20:40:32.712Z,41.17
2018-11-20T20:43:32.624Z,45.17
2018-11-20T20:46:32.007Z,46.30
2018-11-20T20:49:19.795Z,41.50
2018-11-20T20:52:20.018Z,43.07
2018-11-20T20:55:20.054Z,45.77
2018-11-20T20:58:08.573Z,42.77
2018-11-20T21:01:08.104Z,43.37
2018-11-20T21:04:08.258Z,47.10
2018-11-20T21:07:07.996Z,42.50
2018-11-20T21:10:08.242Z,42.93
2018-11-20T21:12:48.721Z,41.23
2018-11-20T21:15:48.862Z,41.43
2018-11-20T21:18:48.573Z,43.10
2018-11-20T21:21:48.502Z,40.87
2018-11-20T21:24:48.557Z,44.77
2018-11-20T21:27:48.585Z,43.73
2018-11-20T21:30:48.407Z,44.00
2018-11-20T21:33:47.946Z,45.90
2018-11-20T21:36:47.942Z,46.20
2018-11-20T21:39:47.618Z,49.27
2018-11-20T21:42:47.540Z,44.77
2018-11-20T21:45:48.637Z,42.97
2018-11-20T21:48:48.534Z,43.30
2018-11-20T21:51:48.433Z,45.93
2018-11-20T21:54:54.470Z,42.63
2018-11-20T21:57:56.696Z,44.70
